Terminal Aerodrome Forecast
Issued by NWS

Home | Current Version | Previous Version | Graphics & Text | Print | Product List | Glossary On
Versions: 1 2 3 4 5 6 7 8 9 10 11 12 13
000
FTUS43 KGRB 191100
TAFCWA
TAF
KCWA 191120Z 1912/2012 16004KT P6SM SCT050 BKN080
     FM191400 21010G19KT P6SM SCT040 BKN080
     FM192300 18006KT P6SM SCT050 BKN090=

USA.gov is the U.S. government's official web portal to all federal, state and local government web resources and services.